createdAt,value
2019-03-10T00:01:48.682Z,6.42
2019-03-10T00:04:16.912Z,5.78
2019-03-10T00:06:45.152Z,6.50
2019-03-10T00:09:13.410Z,5.65
2019-03-10T00:11:41.636Z,5.70
2019-03-10T00:14:09.913Z,6.58
2019-03-10T00:16:38.164Z,7.03
2019-03-10T00:19:06.398Z,6.97
2019-03-10T00:21:34.639Z,6.12
2019-03-10T00:24:02.909Z,5.80
2019-03-10T00:26:31.136Z,7.35
2019-03-10T00:28:59.678Z,6.22
2019-03-10T00:31:27.962Z,5.97
2019-03-10T00:33:56.228Z,6.53
2019-03-10T00:36:24.497Z,6.75
2019-03-10T00:38:58.844Z,6.53
2019-03-10T00:41:36.290Z,5.95
2019-03-10T00:44:42.776Z,6.55
2019-03-10T00:47:47.717Z,6.58
2019-03-10T00:50:31.236Z,6.33
2019-03-10T00:52:59.673Z,6.87
2019-03-10T00:55:27.939Z,6.85
2019-03-10T00:57:56.167Z,6.87
2019-03-10T01:00:24.409Z,7.70
2019-03-10T01:02:52.626Z,6.58
2019-03-10T01:05:20.910Z,6.42
2019-03-10T01:07:49.149Z,5.58
2019-03-10T01:10:17.396Z,6.58
2019-03-10T01:12:45.633Z,6.87
2019-03-10T01:15:14.436Z,7.33
2019-03-10T01:17:42.646Z,7.95
2019-03-10T01:20:11.929Z,6.62
2019-03-10T01:22:40.256Z,5.75
2019-03-10T01:25:10.702Z,6.25
2019-03-10T01:27:39.290Z,6.73
2019-03-10T01:30:19.031Z,6.87
2019-03-10T01:32:50.522Z,6.75
2019-03-10T01:35:21.715Z,6.67
2019-03-10T01:37:49.976Z,7.00
2019-03-10T01:40:18.300Z,6.33
2019-03-10T01:42:46.548Z,5.95
2019-03-10T01:45:14.798Z,6.17
2019-03-10T01:47:43.023Z,6.47
2019-03-10T01:50:13.118Z,6.85
2019-03-10T01:52:41.393Z,5.85
2019-03-10T01:55:11.174Z,5.97
2019-03-10T01:57:39.404Z,6.83
2019-03-10T02:00:11.206Z,6.12
2019-03-10T02:02:39.450Z,6.50
2019-03-10T02:05:07.766Z,6.12
2019-03-10T02:07:35.986Z,5.37
2019-03-10T02:10:07.046Z,6.25
2019-03-10T02:12:36.050Z,5.25
2019-03-10T02:15:07.054Z,5.92
2019-03-10T02:17:35.262Z,5.47
2019-03-10T02:20:05.650Z,5.85
2019-03-10T02:22:33.870Z,6.20
2019-03-10T02:25:02.265Z,5.53
2019-03-10T02:27:30.508Z,6.90
2019-03-10T02:29:58.744Z,5.67
2019-03-10T02:32:26.970Z,5.12
2019-03-10T02:34:55.204Z,5.90
2019-03-10T02:37:23.430Z,5.70
2019-03-10T02:39:51.692Z,5.95
2019-03-10T02:42:19.910Z,5.05
2019-03-10T02:44:48.163Z,5.60
2019-03-10T02:47:16.398Z,6.03
2019-03-10T02:49:44.626Z,5.05
2019-03-10T02:52:12.851Z,5.33
2019-03-10T02:54:41.083Z,6.25
2019-03-10T02:57:09.324Z,5.78
2019-03-10T02:59:37.580Z,6.15
2019-03-10T03:02:05.778Z,5.00
2019-03-10T03:04:34.044Z,5.25
2019-03-10T03:07:02.262Z,6.42
2019-03-10T03:09:30.527Z,5.97
2019-03-10T03:11:58.762Z,5.87
2019-03-10T03:14:27.003Z,6.37
2019-03-10T03:16:55.246Z,7.05
2019-03-10T03:19:23.511Z,6.37
2019-03-10T03:21:51.850Z,5.65
2019-03-10T03:24:20.110Z,6.12
2019-03-10T03:26:48.341Z,6.47
2019-03-10T03:29:16.596Z,6.12
2019-03-10T03:31:44.876Z,5.15
2019-03-10T03:34:13.106Z,6.47
2019-03-10T03:36:41.322Z,6.20
2019-03-10T03:39:18.291Z,6.47
2019-03-10T03:41:46.573Z,5.95
2019-03-10T03:44:14.834Z,6.20
2019-03-10T03:46:43.070Z,7.00
2019-03-10T03:49:12.004Z,8.28
2019-03-10T03:51:40.268Z,7.67
2019-03-10T03:54:08.547Z,7.12
2019-03-10T03:56:36.817Z,7.03
2019-03-10T03:59:05.075Z,6.50
2019-03-10T04:01:35.023Z,6.45
2019-03-10T04:04:03.244Z,7.17
2019-03-10T04:06:31.547Z,7.10
2019-03-10T04:08:59.800Z,6.20
2019-03-10T04:11:28.033Z,6.80
2019-03-10T04:13:56.264Z,7.58
2019-03-10T04:16:24.510Z,5.72
2019-03-10T04:18:52.718Z,6.25
2019-03-10T04:21:20.947Z,6.25
2019-03-10T04:23:49.177Z,6.42
2019-03-10T04:26:17.405Z,6.00
2019-03-10T04:28:45.681Z,5.58
2019-03-10T04:31:14.540Z,6.17
2019-03-10T04:33:42.753Z,6.35
2019-03-10T04:36:10.962Z,6.60
2019-03-10T04:38:39.212Z,7.78
2019-03-10T04:41:07.455Z,6.17
2019-03-10T04:43:35.682Z,6.80
2019-03-10T04:46:03.918Z,6.37
2019-03-10T04:48:32.152Z,6.05
2019-03-10T04:51:00.425Z,6.20
2019-03-10T04:53:28.632Z,5.05
2019-03-10T04:55:58.502Z,5.58
2019-03-10T04:58:26.712Z,5.35
2019-03-10T05:00:56.628Z,5.43
2019-03-10T05:03:24.838Z,6.37
2019-03-10T05:05:53.088Z,5.60
2019-03-10T05:08:21.343Z,5.17
2019-03-10T05:10:49.554Z,5.10
2019-03-10T05:13:17.799Z,4.85
2019-03-10T05:15:46.959Z,5.22
2019-03-10T05:18:15.200Z,4.53
2019-03-10T05:20:43.473Z,4.75
2019-03-10T05:23:29.875Z,4.90
2019-03-10T05:25:58.254Z,4.87
2019-03-10T05:28:26.954Z,4.20
2019-03-10T05:30:55.180Z,4.00
2019-03-10T05:33:23.405Z,4.70
2019-03-10T05:35:51.630Z,4.67
2019-03-10T05:38:19.855Z,4.55
2019-03-10T05:40:48.691Z,4.44
2019-03-10T05:43:16.940Z,4.55
2019-03-10T05:45:45.145Z,5.17
2019-03-10T05:48:13.383Z,5.20
2019-03-10T05:50:41.629Z,4.15
2019-03-10T05:53:09.866Z,5.47
2019-03-10T05:55:38.092Z,5.53
2019-03-10T05:58:06.327Z,5.45
2019-03-10T06:00:42.115Z,4.62
2019-03-10T06:03:04.516Z,5.45
2019-03-10T06:05:32.763Z,5.13
2019-03-10T06:08:00.997Z,5.53
2019-03-10T06:10:29.238Z,6.15
2019-03-10T06:12:57.479Z,6.62
2019-03-10T06:15:25.721Z,5.83
2019-03-10T06:17:54.003Z,6.37
2019-03-10T06:20:22.247Z,5.28
2019-03-10T06:22:51.215Z,4.78
2019-03-10T06:25:19.450Z,5.87
2019-03-10T06:27:47.666Z,5.50
2019-03-10T06:30:15.903Z,6.40
2019-03-10T06:32:44.138Z,5.28
2019-03-10T06:35:12.363Z,6.50
2019-03-10T06:37:40.623Z,5.70
2019-03-10T06:40:08.850Z,5.37
2019-03-10T06:42:37.090Z,5.47
2019-03-10T06:45:06.613Z,4.92
2019-03-10T06:47:34.847Z,5.37
2019-03-10T06:50:03.906Z,5.65
2019-03-10T06:52:32.135Z,5.60
2019-03-10T06:55:00.449Z,5.90
2019-03-10T06:57:28.675Z,4.62
2019-03-10T06:59:56.920Z,4.72
2019-03-10T07:02:25.210Z,5.95
2019-03-10T07:04:53.779Z,5.65
2019-03-10T07:07:22.057Z,5.72
2019-03-10T07:09:50.286Z,5.70
2019-03-10T07:12:18.544Z,6.47
2019-03-10T07:14:46.843Z,7.53
2019-03-10T07:17:15.103Z,7.65
2019-03-10T07:19:43.353Z,7.20
2019-03-10T07:22:11.598Z,6.62
2019-03-10T07:24:39.838Z,6.65
2019-03-10T07:27:08.096Z,5.35
2019-03-10T07:29:40.977Z,6.35
2019-03-10T07:32:10.902Z,6.33
2019-03-10T07:34:57.329Z,5.50
2019-03-10T07:37:39.679Z,4.86
2019-03-10T07:40:15.252Z,5.15
2019-03-10T07:42:53.933Z,4.30
2019-03-10T07:45:26.719Z,4.55
2019-03-10T07:47:59.574Z,5.03
2019-03-10T07:50:38.692Z,5.00
2019-03-10T07:53:17.283Z,4.25
2019-03-10T07:55:53.154Z,4.83
2019-03-10T07:58:23.014Z,5.50
2019-03-10T08:00:52.898Z,4.55
2019-03-10T08:03:26.911Z,4.80
2019-03-10T08:06:15.310Z,5.33
2019-03-10T08:08:45.186Z,5.78
2019-03-10T08:11:20.711Z,5.50
2019-03-10T08:14:06.673Z,6.25
2019-03-10T08:16:36.567Z,7.15
2019-03-10T08:19:22.448Z,6.67
2019-03-10T08:21:55.103Z,6.47
2019-03-10T08:24:33.475Z,5.90
2019-03-10T08:27:03.370Z,5.42
2019-03-10T08:29:44.791Z,6.08
2019-03-10T08:32:14.690Z,5.55
2019-03-10T08:34:44.550Z,5.35
2019-03-10T08:37:17.343Z,5.58
2019-03-10T08:39:56.252Z,5.30
2019-03-10T08:42:26.131Z,6.67
2019-03-10T08:44:59.568Z,6.90
2019-03-10T08:47:31.892Z,5.65
2019-03-10T08:50:02.342Z,6.95
2019-03-10T08:52:32.367Z,7.85
2019-03-10T08:55:05.383Z,7.80
2019-03-10T08:57:35.239Z,7.55
2019-03-10T09:00:23.321Z,7.43
2019-03-10T09:02:56.074Z,6.90
2019-03-10T09:05:41.252Z,7.10
2019-03-10T09:08:16.854Z,7.72
2019-03-10T09:10:49.385Z,8.80
2019-03-10T09:13:19.271Z,9.45
2019-03-10T09:15:55.125Z,7.83
2019-03-10T09:18:34.126Z,7.65
2019-03-10T09:21:04.113Z,6.60
2019-03-10T09:23:34.336Z,6.86
2019-03-10T09:26:07.395Z,7.10
2019-03-10T09:28:55.114Z,7.20
2019-03-10T09:31:27.498Z,6.72
2019-03-10T09:34:00.082Z,6.37
2019-03-10T09:36:29.953Z,5.95
2019-03-10T09:39:15.729Z,4.35
2019-03-10T09:41:51.260Z,3.52
2019-03-10T09:44:37.341Z,4.00
2019-03-10T09:47:09.785Z,3.60
2019-03-10T09:49:48.445Z,3.47
2019-03-10T09:52:33.363Z,2.42
2019-03-10T09:55:12.256Z,2.50
2019-03-10T09:57:58.370Z,2.15
2019-03-10T10:00:36.997Z,1.98
2019-03-10T10:03:09.665Z,2.00
2019-03-10T10:05:42.430Z,2.55
2019-03-10T10:08:14.845Z,2.50
2019-03-10T10:10:50.579Z,2.33
2019-03-10T10:13:29.287Z,1.72
2019-03-10T10:16:04.636Z,2.52
2019-03-10T10:18:34.505Z,2.65
2019-03-10T10:21:20.759Z,3.50
2019-03-10T10:23:53.187Z,2.30
2019-03-10T10:26:41.124Z,2.62
2019-03-10T10:29:27.142Z,2.05
2019-03-10T10:31:57.034Z,2.40
2019-03-10T10:34:26.926Z,2.90
2019-03-10T10:36:56.794Z,2.87
2019-03-10T10:39:43.143Z,2.87
2019-03-10T10:42:29.384Z,2.22
2019-03-10T10:45:02.364Z,2.95
2019-03-10T10:47:32.245Z,3.08
2019-03-10T10:50:02.190Z,3.33
2019-03-10T10:52:41.434Z,3.05
2019-03-10T10:55:23.178Z,3.02
2019-03-10T10:57:58.848Z,3.08
2019-03-10T11:00:28.748Z,4.27
2019-03-10T11:03:04.452Z,2.87
2019-03-10T11:05:39.917Z,3.47
2019-03-10T11:08:13.281Z,3.02
2019-03-10T11:10:43.151Z,3.12
2019-03-10T11:13:18.814Z,2.22
2019-03-10T11:16:00.941Z,2.60
2019-03-10T11:18:40.036Z,2.60
2019-03-10T11:21:28.116Z,2.42
2019-03-10T11:23:58.024Z,2.83
2019-03-10T11:26:28.205Z,2.62
2019-03-10T11:29:07.502Z,3.23
2019-03-10T11:31:37.390Z,3.05
2019-03-10T11:34:09.704Z,3.50
2019-03-10T11:36:54.900Z,2.42
2019-03-10T11:39:30.864Z,3.15
2019-03-10T11:42:03.682Z,2.33
2019-03-10T11:44:45.779Z,3.05
2019-03-10T11:47:15.680Z,2.22
2019-03-10T11:49:51.681Z,3.30
2019-03-10T11:52:30.730Z,2.60
2019-03-10T11:55:00.646Z,3.30
2019-03-10T11:57:39.614Z,2.90
2019-03-10T12:00:21.288Z,3.30
2019-03-10T12:03:09.573Z,3.02
2019-03-10T12:05:57.380Z,3.92
2019-03-10T12:08:44.992Z,3.10
2019-03-10T12:11:13.227Z,2.92
2019-03-10T12:13:41.482Z,3.02
2019-03-10T12:16:09.926Z,3.12
2019-03-10T12:18:38.267Z,2.90
2019-03-10T12:21:06.520Z,3.45
2019-03-10T12:23:35.140Z,3.05
2019-03-10T12:26:03.494Z,2.50
2019-03-10T12:28:32.147Z,2.30
2019-03-10T12:31:00.394Z,2.35
2019-03-10T12:33:28.663Z,2.30
2019-03-10T12:35:56.908Z,2.65
2019-03-10T12:38:25.163Z,2.55
2019-03-10T12:40:53.424Z,2.60
2019-03-10T12:43:21.692Z,2.20
2019-03-10T12:45:49.965Z,2.35
2019-03-10T12:48:18.291Z,2.92
2019-03-10T12:50:46.583Z,3.08
2019-03-10T12:53:15.080Z,2.76
2019-03-10T12:55:43.331Z,4.25
2019-03-10T12:58:11.554Z,3.50
2019-03-10T13:00:39.828Z,3.10
2019-03-10T13:03:08.076Z,3.85
2019-03-10T13:05:36.306Z,3.90
2019-03-10T13:08:04.567Z,3.22
2019-03-10T13:10:32.825Z,3.85
2019-03-10T13:13:01.066Z,3.80
2019-03-10T13:15:29.326Z,3.02
2019-03-10T13:17:57.564Z,3.60
2019-03-10T13:20:28.670Z,3.17
2019-03-10T13:22:55.778Z,3.20
2019-03-10T13:25:24.016Z,3.00
2019-03-10T13:27:52.268Z,3.52
2019-03-10T13:30:20.569Z,2.62
2019-03-10T13:32:48.830Z,1.90
2019-03-10T13:35:17.911Z,1.50
2019-03-10T13:37:46.178Z,1.35
2019-03-10T13:40:14.943Z,1.75
2019-03-10T13:42:43.175Z,1.20
2019-03-10T13:45:13.090Z,1.17
2019-03-10T13:47:41.338Z,2.45
2019-03-10T13:50:12.808Z,1.62
2019-03-10T13:52:41.089Z,1.40
2019-03-10T13:55:09.774Z,1.37
2019-03-10T13:57:38.000Z,1.82
2019-03-10T14:00:25.627Z,1.60
2019-03-10T14:02:53.931Z,1.35
2019-03-10T14:05:22.300Z,1.77
2019-03-10T14:07:50.553Z,1.85
2019-03-10T14:10:18.779Z,1.25
2019-03-10T14:12:47.000Z,1.10
2019-03-10T14:15:16.966Z,1.55
2019-03-10T14:17:45.224Z,1.40
2019-03-10T14:20:14.655Z,1.50
2019-03-10T14:22:43.177Z,1.40
2019-03-10T14:25:13.538Z,1.20
2019-03-10T14:27:41.772Z,1.80
2019-03-10T14:30:12.473Z,1.90
2019-03-10T14:32:40.709Z,1.37
2019-03-10T14:37:32.021Z,1.55
2019-03-10T14:40:00.358Z,1.47
2019-03-10T14:42:28.636Z,1.12
2019-03-10T14:44:56.860Z,1.10
2019-03-10T14:47:25.082Z,1.87
2019-03-10T14:49:53.309Z,1.25
2019-03-10T14:52:27.547Z,1.30
2019-03-10T14:54:55.772Z,1.25
2019-03-10T14:57:24.017Z,1.00
2019-03-10T14:59:53.221Z,1.10
2019-03-10T15:02:21.494Z,1.20
2019-03-10T15:04:49.739Z,1.27
2019-03-10T15:07:17.960Z,1.35
2019-03-10T15:09:46.212Z,1.20
2019-03-10T15:12:14.419Z,1.62
2019-03-10T15:14:42.660Z,1.25
2019-03-10T15:17:10.912Z,1.30
2019-03-10T15:19:39.141Z,1.17
2019-03-10T15:22:07.404Z,1.40
2019-03-10T15:24:35.624Z,1.15
2019-03-10T15:27:04.085Z,1.02
2019-03-10T15:29:32.879Z,1.37
2019-03-10T15:32:01.149Z,1.67
2019-03-10T15:34:29.395Z,1.30
2019-03-10T15:36:57.630Z,0.95
2019-03-10T15:39:27.291Z,1.00
2019-03-10T15:41:55.841Z,1.05
2019-03-10T15:44:24.110Z,0.85
2019-03-10T15:46:52.377Z,0.82
2019-03-10T15:49:20.610Z,0.88
2019-03-10T15:51:48.878Z,0.80
2019-03-10T15:54:17.098Z,0.68
2019-03-10T15:56:45.341Z,0.65
2019-03-10T15:59:13.568Z,0.78
2019-03-10T16:01:41.798Z,0.80
2019-03-10T16:04:15.248Z,1.00
2019-03-10T16:06:43.477Z,0.70
2019-03-10T16:09:11.715Z,1.20
2019-03-10T16:11:39.973Z,0.60
2019-03-10T16:14:08.175Z,0.70
2019-03-10T16:16:36.419Z,0.40
2019-03-10T16:19:04.645Z,0.72
2019-03-10T16:21:32.885Z,0.60
2019-03-10T16:24:01.104Z,0.70
2019-03-10T16:26:29.353Z,0.60
2019-03-10T16:28:57.588Z,0.75
2019-03-10T16:31:25.834Z,0.60
2019-03-10T16:33:54.060Z,0.80
2019-03-10T16:36:22.311Z,0.60
2019-03-10T16:39:50.954Z,0.75
2019-03-10T16:42:19.176Z,1.10
2019-03-10T16:44:47.416Z,1.00
2019-03-10T16:47:15.664Z,1.20
2019-03-10T16:49:43.900Z,1.37
2019-03-10T16:52:12.265Z,1.40
2019-03-10T16:54:40.549Z,1.20
2019-03-10T16:57:08.795Z,1.60
2019-03-10T16:59:37.021Z,1.60
2019-03-10T17:02:05.271Z,1.42
2019-03-10T17:04:33.546Z,1.20
2019-03-10T17:07:01.803Z,1.45
2019-03-10T17:09:30.021Z,1.10
2019-03-10T17:11:58.273Z,1.15
2019-03-10T17:14:26.504Z,1.40
2019-03-10T17:16:54.747Z,1.95
2019-03-10T17:19:22.977Z,1.10
2019-03-10T17:21:51.237Z,1.22
2019-03-10T17:24:19.482Z,1.40
2019-03-10T17:26:47.756Z,1.10
2019-03-10T17:29:15.975Z,1.25
2019-03-10T17:31:44.212Z,1.30
2019-03-10T17:34:12.628Z,1.65
2019-03-10T17:36:40.867Z,1.77
2019-03-10T17:39:09.085Z,1.55
2019-03-10T17:41:37.355Z,1.57
2019-03-10T17:44:05.609Z,1.90
2019-03-10T17:46:33.851Z,1.67
2019-03-10T17:49:02.276Z,1.80
2019-03-10T17:51:30.507Z,1.80
2019-03-10T17:53:58.754Z,1.90
2019-03-10T17:56:26.961Z,1.72
2019-03-10T17:58:55.330Z,1.80
2019-03-10T18:01:23.590Z,1.72
2019-03-10T18:03:52.849Z,1.92
2019-03-10T18:06:21.074Z,1.50
2019-03-10T18:08:49.326Z,2.02
2019-03-10T18:11:17.631Z,1.72
2019-03-10T18:13:45.851Z,2.12
2019-03-10T18:16:14.078Z,1.80
2019-03-10T18:18:42.320Z,1.75
2019-03-10T18:21:10.549Z,1.55
2019-03-10T18:23:38.757Z,1.35
2019-03-10T18:26:06.970Z,1.60
2019-03-10T18:28:35.207Z,1.32
2019-03-10T18:31:03.432Z,1.37
2019-03-10T18:33:31.667Z,1.25
2019-03-10T18:35:59.891Z,1.62
2019-03-10T18:38:28.142Z,1.20
2019-03-10T18:40:56.416Z,1.45
2019-03-10T18:43:25.234Z,1.32
2019-03-10T18:45:53.582Z,1.27
2019-03-10T18:48:21.805Z,1.22
2019-03-10T18:50:50.082Z,1.40
2019-03-10T18:53:18.379Z,1.45
2019-03-10T18:55:46.619Z,1.33
2019-03-10T18:58:15.096Z,1.85
2019-03-10T19:00:43.325Z,1.35
2019-03-10T19:03:11.558Z,1.20
2019-03-10T19:05:39.820Z,2.70
2019-03-10T19:08:08.079Z,2.00
2019-03-10T19:10:36.384Z,2.00
2019-03-10T19:13:04.639Z,1.75
2019-03-10T19:15:32.851Z,1.40
2019-03-10T19:18:01.119Z,1.25
2019-03-10T19:20:29.345Z,1.05
2019-03-10T19:22:57.596Z,1.15
2019-03-10T19:25:25.815Z,1.12
2019-03-10T19:27:54.052Z,1.12
2019-03-10T19:30:22.829Z,1.60
2019-03-10T19:32:51.072Z,1.82
2019-03-10T19:35:19.317Z,1.40
2019-03-10T19:37:47.557Z,1.22
2019-03-10T19:40:20.837Z,1.57
2019-03-10T19:42:49.073Z,1.65
2019-03-10T19:45:21.283Z,1.40
2019-03-10T19:47:49.512Z,1.37
2019-03-10T19:50:27.025Z,1.12
2019-03-10T19:52:54.914Z,1.65
2019-03-10T19:55:23.139Z,1.20
2019-03-10T19:57:51.376Z,1.47
2019-03-10T20:00:20.418Z,1.45
2019-03-10T20:02:48.697Z,1.87
2019-03-10T20:05:16.978Z,1.37
2019-03-10T20:07:45.376Z,1.80
2019-03-10T20:10:15.164Z,2.02
2019-03-10T20:12:43.403Z,1.75
2019-03-10T20:15:14.369Z,1.82
2019-03-10T20:17:42.649Z,1.87
2019-03-10T20:20:13.319Z,2.10
2019-03-10T20:22:41.725Z,1.70
2019-03-10T20:25:11.804Z,1.57
2019-03-10T20:27:40.034Z,1.70
2019-03-10T20:30:16.195Z,1.57
2019-03-10T20:32:44.467Z,2.08
2019-03-10T20:35:12.720Z,1.67
2019-03-10T20:37:40.922Z,1.90
2019-03-10T20:40:12.411Z,2.10
2019-03-10T20:42:40.633Z,1.98
2019-03-10T20:45:10.016Z,2.10
2019-03-10T20:47:38.232Z,2.65
2019-03-10T20:50:16.714Z,3.30
2019-03-10T20:52:44.926Z,2.65
2019-03-10T20:55:14.125Z,3.00
2019-03-10T20:57:42.340Z,3.05
2019-03-10T21:00:16.442Z,7.80
2019-03-10T21:02:44.724Z,2.87
2019-03-10T21:05:12.969Z,2.87
2019-03-10T21:07:41.221Z,2.98
2019-03-10T21:10:17.945Z,2.35
2019-03-10T21:12:46.279Z,2.35
2019-03-10T21:15:21.769Z,2.52
2019-03-10T21:17:49.984Z,2.27
2019-03-10T21:20:23.342Z,2.47
2019-03-10T21:22:51.591Z,2.30
2019-03-10T21:25:30.657Z,2.52
2019-03-10T21:27:58.878Z,2.72
2019-03-10T21:30:32.031Z,2.67
2019-03-10T21:33:00.243Z,3.12
2019-03-10T21:35:28.488Z,2.75
2019-03-10T21:37:56.742Z,2.85
2019-03-10T21:40:33.286Z,2.80
2019-03-10T21:43:01.499Z,2.37
2019-03-10T21:45:29.775Z,2.42
2019-03-10T21:47:58.055Z,2.55
2019-03-10T21:56:25.447Z,2.80
2019-03-10T21:58:53.707Z,3.12
2019-03-10T22:01:21.951Z,3.27
2019-03-10T22:03:50.162Z,3.77
2019-03-10T22:06:18.410Z,3.85
2019-03-10T22:08:46.650Z,4.50
2019-03-10T22:11:14.897Z,4.33
2019-03-10T22:13:46.876Z,4.67
2019-03-10T22:16:13.083Z,5.10
2019-03-10T22:18:41.322Z,4.53
2019-03-10T22:21:09.569Z,4.83
2019-03-10T22:23:37.786Z,4.55
2019-03-10T22:26:06.038Z,4.87
2019-03-10T22:28:34.313Z,5.13
2019-03-10T22:31:02.578Z,5.30
2019-03-10T22:33:30.824Z,5.93
2019-03-10T22:35:59.058Z,5.40
2019-03-10T22:38:27.297Z,4.42
2019-03-10T22:40:55.615Z,4.12
2019-03-10T22:43:23.869Z,4.47
2019-03-10T22:45:52.128Z,4.10
2019-03-10T22:48:20.999Z,4.48
2019-03-10T22:50:49.239Z,4.10
2019-03-10T22:53:17.478Z,3.30
2019-03-10T22:55:45.724Z,3.65
2019-03-10T22:58:13.966Z,2.52
2019-03-10T23:00:46.442Z,3.00
2019-03-10T23:03:14.690Z,2.70
2019-03-10T23:05:42.947Z,3.62
2019-03-10T23:08:11.315Z,2.62
2019-03-10T23:10:39.561Z,2.85
2019-03-10T23:13:07.842Z,2.80
2019-03-10T23:15:36.062Z,2.75
2019-03-10T23:18:04.319Z,3.80
2019-03-10T23:20:32.549Z,3.15
2019-03-10T23:23:00.815Z,2.70
2019-03-10T23:25:29.029Z,2.80
2019-03-10T23:27:57.278Z,3.50
2019-03-10T23:30:25.527Z,3.08
2019-03-10T23:32:53.767Z,2.40
2019-03-10T23:35:21.995Z,3.58
2019-03-10T23:37:50.245Z,2.90
2019-03-10T23:40:19.259Z,2.62
2019-03-10T23:42:47.537Z,3.33
2019-03-10T23:45:19.022Z,2.58
2019-03-10T23:47:47.388Z,2.70
2019-03-10T23:50:16.614Z,3.30
2019-03-10T23:52:44.846Z,2.25
2019-03-10T23:55:13.735Z,3.10
2019-03-10T23:57:41.938Z,2.47
